Hlavní strana
METAR-TAF:

METAR-TAF

Letiště :

Mezinárodní letiště Davida Budovatele

Kutaisi, Gruzie

zeměpisná šířka: 42-10-35N, zeměpisná délka: 042-28-57E, výška: 68 m

Aktuální stav počasí

Zpráva byla vytvořena před 35 minutami, v 21:30 UTC
vítr z různých směrů 4 kt
Teplota 7°C
Vlhkost vzduchu 70%
Tlak 1021 hPa
Viditelnost 10 km a více
Žádná oblačnost pod 1500 m, nevyskytují se cumulonimby.

METAR: UGKO 122130Z VRB04KT CAVOK 07/02 Q1021 NOSIG

Čas: 02:05 (22:05 UTC)

Předpověď počasí

Zpráva byla vytvořena před 5 hodinami a 5 minutami, v 17:00 UTC
Předpověď platná od 12 v 18 UTC do 13 v 18 UTC
Východní vítr 7 kt
Viditelnost 10 km a více
Žádná oblačnost pod 1500 m, nevyskytují se cumulonimby.
Dočasný
od 13 v 02 UTC do 13 v 10 UTC
Východní vítr 17 kt
Změna
od 13 v 10 UTC do 13 v 13 UTC
Východní vítr 20 kt s nárazy do 30 kt

TAF: UGKO 121700Z 1218/1318 09007KT CAVOK TX23/1311Z TN07/1303Z TEMPO 1302/1310 08017KT BECMG 1310/1313 08020G30KT

Stav a předpovědi počasí z více než 4 000 letišť (zprávy METAR a TAF).

Červené a žluté tečky na mapě představují dostupné meteorologické stanice.

Když kurzor umístíte na tečku, zobrazí se název stanice.

Pak kliknutím zobrazíte stav a předpověď počasí.

Chcete-li změnit mapu, kliknutím na zelené tlačítko se znaménkem +mapu přiblížíte, kliknutím na zelené tlačítko se znaménkem – mapu oddálíte a kliknutím na zelené šipky přejdete na sousední mapy.


METAR-TAF: